sensor_id;sensor_type;location;lat;lon;timestamp;pressure;altitude;pressure_sealevel;temperature;humidity
5595;BME280;1003;48.002;7.788;2024-03-02T00:00:39;97527.66;;;2.35;100.00
5595;BME280;1003;48.002;7.788;2024-03-02T00:03:07;97525.97;;;2.48;100.00
5595;BME280;1003;48.002;7.788;2024-03-02T00:05:35;97526.84;;;2.38;100.00
5595;BME280;1003;48.002;7.788;2024-03-02T00:08:05;97524.41;;;2.27;100.00
5595;BME280;1003;48.002;7.788;2024-03-02T00:10:38;97517.81;;;2.14;100.00
5595;BME280;1003;48.002;7.788;2024-03-02T00:13:08;97526.97;;;1.99;100.00
5595;BME280;1003;48.002;7.788;2024-03-02T00:15:46;97523.69;;;1.87;100.00
5595;BME280;1003;48.002;7.788;2024-03-02T00:18:18;97527.03;;;1.73;100.00
5595;BME280;1003;48.002;7.788;2024-03-02T00:20:46;97525.41;;;1.52;100.00
5595;BME280;1003;48.002;7.788;2024-03-02T00:23:16;97520.47;;;1.36;100.00
5595;BME280;1003;48.002;7.788;2024-03-02T00:25:46;97524.59;;;1.21;100.00
5595;BME280;1003;48.002;7.788;2024-03-02T00:28:18;97523.78;;;1.13;100.00
5595;BME280;1003;48.002;7.788;2024-03-02T00:30:57;97523.75;;;1.04;100.00
5595;BME280;1003;48.002;7.788;2024-03-02T00:33:27;97522.94;;;1.08;100.00
5595;BME280;1003;48.002;7.788;2024-03-02T00:35:57;97522.94;;;1.14;100.00
5595;BME280;1003;48.002;7.788;2024-03-02T00:38:26;97527.91;;;1.08;100.00
5595;BME280;1003;48.002;7.788;2024-03-02T00:40:54;97516.34;;;0.98;100.00
5595;BME280;1003;48.002;7.788;2024-03-02T00:43:43;97511.38;;;0.90;100.00
5595;BME280;1003;48.002;7.788;2024-03-02T00:46:12;97509.72;;;0.85;100.00
5595;BME280;1003;48.002;7.788;2024-03-02T00:48:48;97499.00;;;0.81;100.00
5595;BME280;1003;48.002;7.788;2024-03-02T00:51:15;97502.28;;;0.72;100.00
5595;BME280;1003;48.002;7.788;2024-03-02T00:53:42;97500.63;;;0.71;100.00
5595;BME280;1003;48.002;7.788;2024-03-02T00:56:10;97485.00;;;0.83;100.00
5595;BME280;1003;48.002;7.788;2024-03-02T00:58:39;97484.16;;;0.79;100.00
5595;BME280;1003;48.002;7.788;2024-03-02T01:01:06;97485.81;;;0.71;100.00
5595;BME280;1003;48.002;7.788;2024-03-02T01:03:34;97486.63;;;0.75;100.00
5595;BME280;1003;48.002;7.788;2024-03-02T01:06:01;97485.00;;;0.85;100.00
5595;BME280;1003;48.002;7.788;2024-03-02T01:08:28;97470.19;;;0.92;100.00
5595;BME280;1003;48.002;7.788;2024-03-02T01:10:55;97477.56;;;0.85;100.00
5595;BME280;1003;48.002;7.788;2024-03-02T01:13:22;97468.50;;;0.73;100.00
5595;BME280;1003;48.002;7.788;2024-03-02T01:15:51;97484.16;;;0.67;100.00
5595;BME280;1003;48.002;7.788;2024-03-02T01:18:19;97471.78;;;0.66;100.00
5595;BME280;1003;48.002;7.788;2024-03-02T01:20:45;97483.31;;;0.58;100.00
5595;BME280;1003;48.002;7.788;2024-03-02T01:23:12;97483.28;;;0.59;100.00
5595;BME280;1003;48.002;7.788;2024-03-02T01:25:39;97475.91;;;0.62;100.00
5595;BME280;1003;48.002;7.788;2024-03-02T01:28:06;97480.00;;;0.52;100.00
5595;BME280;1003;48.002;7.788;2024-03-02T01:30:33;97478.34;;;0.47;100.00
5595;BME280;1003;48.002;7.788;2024-03-02T01:33:02;97468.44;;;0.47;100.00
5595;BME280;1003;48.002;7.788;2024-03-02T01:35:30;97467.63;;;0.52;100.00
5595;BME280;1003;48.002;7.788;2024-03-02T01:37:57;97458.59;;;0.68;100.00
5595;BME280;1003;48.002;7.788;2024-03-02T01:40:24;97458.59;;;0.73;100.00
5595;BME280;1003;48.002;7.788;2024-03-02T01:42:52;97452.84;;;0.74;100.00
5595;BME280;1003;48.002;7.788;2024-03-02T01:45:20;97454.50;;;0.79;100.00
5595;BME280;1003;48.002;7.788;2024-03-02T01:47:47;97448.72;;;0.73;100.00
5595;BME280;1003;48.002;7.788;2024-03-02T01:50:16;97447.88;;;0.63;100.00
5595;BME280;1003;48.002;7.788;2024-03-02T01:52:51;97444.56;;;0.53;100.00
5595;BME280;1003;48.002;7.788;2024-03-02T01:55:18;97444.53;;;0.43;100.00
5595;BME280;1003;48.002;7.788;2024-03-02T01:57:45;97430.53;;;0.34;100.00
5595;BME280;1003;48.002;7.788;2024-03-02T02:00:14;97433.03;;;0.33;100.00
5595;BME280;1003;48.002;7.788;2024-03-02T02:02:42;97426.41;;;0.30;100.00
5595;BME280;1003;48.002;7.788;2024-03-02T02:05:09;97428.06;;;0.34;100.00
5595;BME280;1003;48.002;7.788;2024-03-02T02:07:37;97420.66;;;0.34;100.00
5595;BME280;1003;48.002;7.788;2024-03-02T02:10:05;97415.72;;;0.37;100.00
5595;BME280;1003;48.002;7.788;2024-03-02T02:12:33;97412.44;;;0.41;100.00
5595;BME280;1003;48.002;7.788;2024-03-02T02:15:00;97413.28;;;0.43;100.00
5595;BME280;1003;48.002;7.788;2024-03-02T02:17:27;97409.16;;;0.59;100.00
5595;BME280;1003;48.002;7.788;2024-03-02T02:19:54;97393.50;;;1.04;100.00
5595;BME280;1003;48.002;7.788;2024-03-02T02:22:22;97380.25;;;1.22;100.00
5595;BME280;1003;48.002;7.788;2024-03-02T02:24:49;97381.13;;;1.00;100.00
5595;BME280;1003;48.002;7.788;2024-03-02T02:27:16;97384.44;;;0.85;100.00
5595;BME280;1003;48.002;7.788;2024-03-02T02:29:43;97368.78;;;0.98;100.00
5595;BME280;1003;48.002;7.788;2024-03-02T02:32:10;97364.63;;;1.08;100.00
5595;BME280;1003;48.002;7.788;2024-03-02T02:34:37;97366.25;;;1.15;100.00
5595;BME280;1003;48.002;7.788;2024-03-02T02:37:04;97371.25;;;0.74;100.00
5595;BME280;1003;48.002;7.788;2024-03-02T02:39:33;97365.50;;;0.73;100.00
5595;BME280;1003;48.002;7.788;2024-03-02T02:41:59;97362.19;;;0.99;100.00
5595;BME280;1003;48.002;7.788;2024-03-02T02:44:28;97356.38;;;1.12;100.00
5595;BME280;1003;48.002;7.788;2024-03-02T02:46:55;97350.56;;;1.18;100.00
5595;BME280;1003;48.002;7.788;2024-03-02T02:49:22;97353.94;;;0.95;100.00
5595;BME280;1003;48.002;7.788;2024-03-02T02:51:49;97367.13;;;0.81;100.00
5595;BME280;1003;48.002;7.788;2024-03-02T02:54:16;97354.78;;;0.77;100.00
5595;BME280;1003;48.002;7.788;2024-03-02T02:56:44;97358.09;;;0.70;100.00
5595;BME280;1003;48.002;7.788;2024-03-02T02:59:11;97358.91;;;0.63;100.00
5595;BME280;1003;48.002;7.788;2024-03-02T03:01:38;97363.84;;;0.62;100.00
5595;BME280;1003;48.002;7.788;2024-03-02T03:04:05;97361.38;;;0.46;100.00
5595;BME280;1003;48.002;7.788;2024-03-02T03:06:32;97356.44;;;0.66;100.00
5595;BME280;1003;48.002;7.788;2024-03-02T03:08:59;97348.19;;;0.87;100.00
5595;BME280;1003;48.002;7.788;2024-03-02T03:11:25;97352.28;;;0.99;100.00
5595;BME280;1003;48.002;7.788;2024-03-02T03:13:53;97358.91;;;0.77;100.00
5595;BME280;1003;48.002;7.788;2024-03-02T03:16:21;97362.19;;;0.53;100.00
5595;BME280;1003;48.002;7.788;2024-03-02T03:18:48;97352.28;;;0.32;100.00
5595;BME280;1003;48.002;7.788;2024-03-02T03:21:17;97361.34;;;0.25;100.00
5595;BME280;1003;48.002;7.788;2024-03-02T03:23:44;97361.34;;;0.17;100.00
5595;BME280;1003;48.002;7.788;2024-03-02T03:26:11;97363.00;;;0.12;100.00
5595;BME280;1003;48.002;7.788;2024-03-02T03:28:38;97353.13;;;0.23;100.00
5595;BME280;1003;48.002;7.788;2024-03-02T03:31:06;97354.78;;;0.38;100.00
5595;BME280;1003;48.002;7.788;2024-03-02T03:33:33;97363.03;;;0.44;100.00
5595;BME280;1003;48.002;7.788;2024-03-02T03:36:01;97360.56;;;0.34;100.00
5595;BME280;1003;48.002;7.788;2024-03-02T03:38:29;97353.13;;;0.24;100.00
5595;BME280;1003;48.002;7.788;2024-03-02T03:40:56;97356.41;;;0.23;100.00
5595;BME280;1003;48.002;7.788;2024-03-02T03:43:23;97363.78;;;0.02;100.00
5595;BME280;1003;48.002;7.788;2024-03-02T03:45:50;97362.09;;;-0.11;100.00
5595;BME280;1003;48.002;7.788;2024-03-02T03:48:18;97378.53;;;-0.25;100.00
5595;BME280;1003;48.002;7.788;2024-03-02T03:50:45;97385.84;;;-0.44;100.00
5595;BME280;1003;48.002;7.788;2024-03-02T03:53:12;97389.94;;;-0.49;100.00
5595;BME280;1003;48.002;7.788;2024-03-02T03:55:40;97392.38;;;-0.57;100.00
5595;BME280;1003;48.002;7.788;2024-03-02T03:58:07;97397.31;;;-0.58;100.00
5595;BME280;1003;48.002;7.788;2024-03-02T04:00:34;97398.13;;;-0.59;100.00
5595;BME280;1003;48.002;7.788;2024-03-02T04:03:01;97397.28;;;-0.61;100.00
5595;BME280;1003;48.002;7.788;2024-03-02T04:05:29;97391.50;;;-0.68;100.00
5595;BME280;1003;48.002;7.788;2024-03-02T04:07:56;97396.44;;;-0.66;100.00
5595;BME280;1003;48.002;7.788;2024-03-02T04:10:23;97393.94;;;-0.74;100.00
5595;BME280;1003;48.002;7.788;2024-03-02T04:12:50;97413.63;;;-0.77;100.00
5595;BME280;1003;48.002;7.788;2024-03-02T04:15:17;97411.13;;;-0.82;100.00
5595;BME280;1003;48.002;7.788;2024-03-02T04:17:45;97425.09;;;-0.82;100.00
5595;BME280;1003;48.002;7.788;2024-03-02T04:20:12;97422.66;;;-0.81;100.00
5595;BME280;1003;48.002;7.788;2024-03-02T04:22:41;97416.91;;;-0.80;100.00
5595;BME280;1003;48.002;7.788;2024-03-02T04:25:08;97416.09;;;-0.77;100.00
5595;BME280;1003;48.002;7.788;2024-03-02T04:27:35;97408.84;;;-0.49;100.00
5595;BME280;1003;48.002;7.788;2024-03-02T04:30:04;97411.38;;;-0.40;100.00
5595;BME280;1003;48.002;7.788;2024-03-02T04:32:32;97408.06;;;-0.47;100.00
5595;BME280;1003;48.002;7.788;2024-03-02T04:34:59;97403.97;;;-0.42;100.00
5595;BME280;1003;48.002;7.788;2024-03-02T04:37:26;97408.94;;;-0.28;100.00
5595;BME280;1003;48.002;7.788;2024-03-02T04:39:54;97409.81;;;-0.17;100.00
5595;BME280;1003;48.002;7.788;2024-03-02T04:42:21;97415.56;;;-0.19;100.00
5595;BME280;1003;48.002;7.788;2024-03-02T04:44:48;97409.00;;;-0.14;100.00
5595;BME280;1003;48.002;7.788;2024-03-02T04:47:15;97409.03;;;-0.08;100.00
5595;BME280;1003;48.002;7.788;2024-03-02T04:49:42;97399.19;;;0.01;100.00
5595;BME280;1003;48.002;7.788;2024-03-02T04:52:09;97390.16;;;0.18;100.00
5595;BME280;1003;48.002;7.788;2024-03-02T04:54:36;97386.06;;;0.34;100.00
5595;BME280;1003;48.002;7.788;2024-03-02T04:57:24;97387.72;;;0.52;100.00
5595;BME280;1003;48.002;7.788;2024-03-02T04:59:50;97380.34;;;0.70;100.00
5595;BME280;1003;48.002;7.788;2024-03-02T05:02:17;97379.47;;;0.85;100.00
5595;BME280;1003;48.002;7.788;2024-03-02T05:04:44;97371.25;;;0.94;100.00
5595;BME280;1003;48.002;7.788;2024-03-02T05:07:11;97371.25;;;0.89;100.00
5595;BME280;1003;48.002;7.788;2024-03-02T05:09:38;97372.06;;;0.84;100.00
5595;BME280;1003;48.002;7.788;2024-03-02T05:12:05;97368.81;;;0.75;100.00
5595;BME280;1003;48.002;7.788;2024-03-02T05:14:49;97367.16;;;0.71;100.00
5595;BME280;1003;48.002;7.788;2024-03-02T05:17:16;97365.47;;;0.75;100.00
5595;BME280;1003;48.002;7.788;2024-03-02T05:19:43;97361.38;;;0.82;100.00
5595;BME280;1003;48.002;7.788;2024-03-02T05:22:10;97363.84;;;0.88;100.00
5595;BME280;1003;48.002;7.788;2024-03-02T05:24:37;97352.28;;;0.93;100.00
5595;BME280;1003;48.002;7.788;2024-03-02T05:27:04;97354.75;;;0.94;100.00
5595;BME280;1003;48.002;7.788;2024-03-02T05:29:33;97352.28;;;1.00;100.00
5595;BME280;1003;48.002;7.788;2024-03-02T05:32:01;97353.13;;;0.98;100.00
5595;BME280;1003;48.002;7.788;2024-03-02T05:34:28;97355.59;;;0.98;100.00
5595;BME280;1003;48.002;7.788;2024-03-02T05:36:56;97345.66;;;1.09;100.00
5595;BME280;1003;48.002;7.788;2024-03-02T05:39:24;97341.47;;;1.27;100.00
5595;BME280;1003;48.002;7.788;2024-03-02T05:41:51;97328.16;;;1.61;100.00
5595;BME280;1003;48.002;7.788;2024-03-02T05:44:18;97337.22;;;1.60;100.00
5595;BME280;1003;48.002;7.788;2024-03-02T05:46:45;97338.19;;;1.30;100.00
5595;BME280;1003;48.002;7.788;2024-03-02T05:49:13;97343.94;;;1.37;100.00
5595;BME280;1003;48.002;7.788;2024-03-02T05:51:40;97343.94;;;1.37;100.00
5595;BME280;1003;48.002;7.788;2024-03-02T05:54:07;97335.66;;;1.44;100.00
5595;BME280;1003;48.002;7.788;2024-03-02T05:56:35;97339.78;;;1.43;100.00
5595;BME280;1003;48.002;7.788;2024-03-02T05:59:02;97338.97;;;1.46;100.00
5595;BME280;1003;48.002;7.788;2024-03-02T06:01:38;97341.41;;;1.56;100.00
5595;BME280;1003;48.002;7.788;2024-03-02T06:04:05;97354.66;;;1.42;100.00
5595;BME280;1003;48.002;7.788;2024-03-02T06:06:33;97350.56;;;1.27;100.00
5595;BME280;1003;48.002;7.788;2024-03-02T06:09:00;97354.69;;;1.23;100.00
5595;BME280;1003;48.002;7.788;2024-03-02T06:11:28;97357.19;;;1.17;100.00
5595;BME280;1003;48.002;7.788;2024-03-02T06:13:55;97365.47;;;1.13;100.00
5595;BME280;1003;48.002;7.788;2024-03-02T06:16:22;97367.13;;;1.08;100.00
5595;BME280;1003;48.002;7.788;2024-03-02T06:18:49;97361.31;;;1.11;100.00
5595;BME280;1003;48.002;7.788;2024-03-02T06:21:17;97355.53;;;1.16;100.00
5595;BME280;1003;48.002;7.788;2024-03-02T06:23:46;97360.47;;;1.22;100.00
5595;BME280;1003;48.002;7.788;2024-03-02T06:26:13;97357.19;;;1.17;100.00
5595;BME280;1003;48.002;7.788;2024-03-02T06:28:40;97357.19;;;1.13;100.00
5595;BME280;1003;48.002;7.788;2024-03-02T06:31:07;97359.66;;;1.17;100.00
5595;BME280;1003;48.002;7.788;2024-03-02T06:33:33;97353.84;;;1.29;100.00
5595;BME280;1003;48.002;7.788;2024-03-02T06:36:01;97346.38;;;1.49;100.00
5595;BME280;1003;48.002;7.788;2024-03-02T06:38:28;97337.94;;;1.87;100.00
5595;BME280;1003;48.002;7.788;2024-03-02T06:40:56;97331.09;;;2.25;100.00
5595;BME280;1003;48.002;7.788;2024-03-02T06:43:23;97313.31;;;2.80;100.00
5595;BME280;1003;48.002;7.788;2024-03-02T06:45:50;97312.84;;;3.25;100.00
5595;BME280;1003;48.002;7.788;2024-03-02T06:48:17;97310.94;;;3.45;100.00
5595;BME280;1003;48.002;7.788;2024-03-02T06:50:46;97342.72;;;3.15;100.00
5595;BME280;1003;48.002;7.788;2024-03-02T06:53:13;97347.78;;;3.05;100.00
5595;BME280;1003;48.002;7.788;2024-03-02T06:55:43;97363.53;;;3.01;100.00
5595;BME280;1003;48.002;7.788;2024-03-02T06:58:12;97374.16;;;3.15;100.00
5595;BME280;1003;48.002;7.788;2024-03-02T07:00:41;97374.91;;;3.22;100.00
5595;BME280;1003;48.002;7.788;2024-03-02T07:03:09;97374.69;;;3.43;100.00
5595;BME280;1003;48.002;7.788;2024-03-02T07:05:36;97371.19;;;3.59;100.00
5595;BME280;1003;48.002;7.788;2024-03-02T07:08:04;97372.09;;;3.54;100.00
5595;BME280;1003;48.002;7.788;2024-03-02T07:10:32;97368.06;;;3.45;100.00
5595;BME280;1003;48.002;7.788;2024-03-02T07:12:58;97360.47;;;3.57;100.00
5595;BME280;1003;48.002;7.788;2024-03-02T07:15:27;97350.31;;;3.74;100.00
5595;BME280;1003;48.002;7.788;2024-03-02T07:18:12;97329.50;;;3.81;100.00
5595;BME280;1003;48.002;7.788;2024-03-02T07:20:39;97321.03;;;3.96;100.00
5595;BME280;1003;48.002;7.788;2024-03-02T07:23:06;97311.16;;;3.91;100.00
5595;BME280;1003;48.002;7.788;2024-03-02T07:25:34;97310.25;;;3.99;100.00
5595;BME280;1003;48.002;7.788;2024-03-02T07:28:01;97300.16;;;4.08;100.00
5595;BME280;1003;48.002;7.788;2024-03-02T07:30:31;97298.22;;;4.27;100.00
5595;BME280;1003;48.002;7.788;2024-03-02T07:32:58;97301.41;;;4.36;100.00
5595;BME280;1003;48.002;7.788;2024-03-02T07:35:25;97300.34;;;4.50;100.00
5595;BME280;1003;48.002;7.788;2024-03-02T07:37:53;97310.91;;;4.62;100.00
5595;BME280;1003;48.002;7.788;2024-03-02T07:40:21;97307.31;;;4.79;100.00
5595;BME280;1003;48.002;7.788;2024-03-02T07:42:48;97307.91;;;4.93;100.00
5595;BME280;1003;48.002;7.788;2024-03-02T07:45:15;97315.22;;;5.02;100.00
5595;BME280;1003;48.002;7.788;2024-03-02T07:47:43;97307.47;;;5.16;100.00
5595;BME280;1003;48.002;7.788;2024-03-02T07:50:10;97316.09;;;5.43;100.00
5595;BME280;1003;48.002;7.788;2024-03-02T07:52:37;97317.97;;;5.73;100.00
5595;BME280;1003;48.002;7.788;2024-03-02T07:55:04;97316.88;;;6.25;100.00
5595;BME280;1003;48.002;7.788;2024-03-02T07:57:32;97323.75;;;6.51;100.00
5595;BME280;1003;48.002;7.788;2024-03-02T07:59:59;97343.72;;;6.51;100.00
5595;BME280;1003;48.002;7.788;2024-03-02T08:02:26;97346.53;;;6.72;100.00
5595;BME280;1003;48.002;7.788;2024-03-02T08:04:54;97353.34;;;6.99;100.00
5595;BME280;1003;48.002;7.788;2024-03-02T08:07:21;97368.41;;;7.29;100.00
5595;BME280;1003;48.002;7.788;2024-03-02T08:09:48;97404.94;;;7.66;100.00
5595;BME280;1003;48.002;7.788;2024-03-02T08:12:15;97441.25;;;8.08;100.00
5595;BME280;1003;48.002;7.788;2024-03-02T08:14:42;97476.00;;;8.49;100.00
5595;BME280;1003;48.002;7.788;2024-03-02T08:17:09;97515.84;;;8.56;100.00
5595;BME280;1003;48.002;7.788;2024-03-02T08:19:37;97547.53;;;8.57;100.00
5595;BME280;1003;48.002;7.788;2024-03-02T08:22:06;97562.28;;;8.66;100.00
5595;BME280;1003;48.002;7.788;2024-03-02T08:24:33;97568.72;;;8.75;100.00
5595;BME280;1003;48.002;7.788;2024-03-02T08:27:00;97580.56;;;8.98;100.00
5595;BME280;1003;48.002;7.788;2024-03-02T08:32:01;97583.56;;;9.37;100.00
5595;BME280;1003;48.002;7.788;2024-03-02T08:34:28;97614.28;;;9.70;100.00
5595;BME280;1003;48.002;7.788;2024-03-02T08:36:55;97647.66;;;9.99;100.00
5595;BME280;1003;48.002;7.788;2024-03-02T08:44:34;97745.66;;;10.97;100.00
5595;BME280;1003;48.002;7.788;2024-03-02T08:47:01;97811.16;;;11.18;100.00
5595;BME280;1003;48.002;7.788;2024-03-02T08:49:28;97830.28;;;11.47;100.00
5595;BME280;1003;48.002;7.788;2024-03-02T08:51:55;97859.59;;;11.71;100.00
5595;BME280;1003;48.002;7.788;2024-03-02T08:54:22;97854.88;;;11.87;100.00
5595;BME280;1003;48.002;7.788;2024-03-02T08:56:49;97857.75;;;12.00;100.00
5595;BME280;1003;48.002;7.788;2024-03-02T08:59:17;97854.41;;;12.21;100.00
5595;BME280;1003;48.002;7.788;2024-03-02T09:01:45;97853.78;;;12.38;100.00
5595;BME280;1003;48.002;7.788;2024-03-02T09:04:12;97855.59;;;12.56;100.00
5595;BME280;1003;48.002;7.788;2024-03-02T09:06:39;97849.59;;;12.59;100.00
5595;BME280;1003;48.002;7.788;2024-03-02T09:09:06;97844.38;;;12.64;100.00
5595;BME280;1003;48.002;7.788;2024-03-02T09:11:33;97848.72;;;12.80;100.00
5595;BME280;1003;48.002;7.788;2024-03-02T09:14:00;97841.81;;;12.85;100.00
5595;BME280;1003;48.002;7.788;2024-03-02T09:16:27;97832.22;;;12.73;100.00
5595;BME280;1003;48.002;7.788;2024-03-02T09:18:57;97829.44;;;12.79;100.00
5595;BME280;1003;48.002;7.788;2024-03-02T09:21:25;97826.25;;;12.76;100.00
5595;BME280;1003;48.002;7.788;2024-03-02T09:23:52;97823.91;;;12.71;100.00
5595;BME280;1003;48.002;7.788;2024-03-02T09:26:19;97826.13;;;12.79;100.00
5595;BME280;1003;48.002;7.788;2024-03-02T09:28:46;97823.41;;;13.04;100.00
5595;BME280;1003;48.002;7.788;2024-03-02T09:31:13;97815.31;;;13.16;100.00
5595;BME280;1003;48.002;7.788;2024-03-02T09:33:40;97818.03;;;13.11;100.00
5595;BME280;1003;48.002;7.788;2024-03-02T09:36:18;97820.44;;;13.14;100.00
5595;BME280;1003;48.002;7.788;2024-03-02T09:38:45;97814.81;;;13.28;100.00
5595;BME280;1003;48.002;7.788;2024-03-02T09:41:14;97804.88;;;13.44;100.00
5595;BME280;1003;48.002;7.788;2024-03-02T09:43:41;97814.91;;;13.64;100.00
5595;BME280;1003;48.002;7.788;2024-03-02T09:46:09;97809.28;;;13.78;100.00
5595;BME280;1003;48.002;7.788;2024-03-02T09:48:37;97808.81;;;13.87;100.00
5595;BME280;1003;48.002;7.788;2024-03-02T09:51:05;97807.47;;;13.99;100.00
5595;BME280;1003;48.002;7.788;2024-03-02T09:53:34;97817.00;;;14.11;100.00
5595;BME280;1003;48.002;7.788;2024-03-02T09:56:01;97813.22;;;14.20;100.00
5595;BME280;1003;48.002;7.788;2024-03-02T09:58:28;97810.19;;;14.31;100.00
5595;BME280;1003;48.002;7.788;2024-03-02T10:00:55;97814.50;;;14.29;100.00
5595;BME280;1003;48.002;7.788;2024-03-02T10:03:23;97804.88;;;14.37;100.00
5595;BME280;1003;48.002;7.788;2024-03-02T10:05:50;97807.75;;;14.47;100.00
5595;BME280;1003;48.002;7.788;2024-03-02T10:08:18;97812.81;;;14.47;100.00
5595;BME280;1003;48.002;7.788;2024-03-02T10:10:46;97809.66;;;14.60;100.00
5595;BME280;1003;48.002;7.788;2024-03-02T10:13:14;97820.72;;;14.58;100.00
5595;BME280;1003;48.002;7.788;2024-03-02T10:15:42;97810.41;;;14.62;100.00
5595;BME280;1003;48.002;7.788;2024-03-02T10:18:10;97804.50;;;14.79;100.00
5595;BME280;1003;48.002;7.788;2024-03-02T10:20:38;97819.84;;;14.76;100.00
5595;BME280;1003;48.002;7.788;2024-03-02T10:23:13;97818.56;;;14.67;100.00
5595;BME280;1003;48.002;7.788;2024-03-02T10:25:41;97826.16;;;14.67;100.00
5595;BME280;1003;48.002;7.788;2024-03-02T10:28:09;97829.44;;;14.69;100.00
5595;BME280;1003;48.002;7.788;2024-03-02T10:30:36;97835.69;;;14.80;100.00
5595;BME280;1003;48.002;7.788;2024-03-02T10:33:05;97821.41;;;14.79;100.00
5595;BME280;1003;48.002;7.788;2024-03-02T10:35:33;97831.22;;;14.85;100.00
5595;BME280;1003;48.002;7.788;2024-03-02T10:38:04;97827.03;;;15.01;100.00
5595;BME280;1003;48.002;7.788;2024-03-02T10:40:32;97835.97;;;15.08;100.00
5595;BME280;1003;48.002;7.788;2024-03-02T10:43:01;97828.47;;;15.22;100.00
5595;BME280;1003;48.002;7.788;2024-03-02T10:45:30;97844.75;;;15.18;100.00
5595;BME280;1003;48.002;7.788;2024-03-02T10:47:57;97838.47;;;15.26;100.00
5595;BME280;1003;48.002;7.788;2024-03-02T10:50:25;97844.25;;;15.28;100.00
5595;BME280;1003;48.002;7.788;2024-03-02T10:52:52;97846.97;;;15.25;100.00
5595;BME280;1003;48.002;7.788;2024-03-02T10:55:19;97850.69;;;15.17;100.00
5595;BME280;1003;48.002;7.788;2024-03-02T10:57:51;97847.19;;;15.20;100.00
5595;BME280;1003;48.002;7.788;2024-03-02T11:00:20;97853.16;;;15.19;100.00
5595;BME280;1003;48.002;7.788;2024-03-02T11:02:58;97858.22;;;15.19;100.00
5595;BME280;1003;48.002;7.788;2024-03-02T11:05:34;97860.28;;;15.11;100.00
5595;BME280;1003;48.002;7.788;2024-03-02T11:08:07;97850.25;;;15.09;100.00
5595;BME280;1003;48.002;7.788;2024-03-02T11:10:45;97859.38;;;15.12;100.00
5595;BME280;1003;48.002;7.788;2024-03-02T11:13:22;97855.56;;;15.38;100.00
5595;BME280;1003;48.002;7.788;2024-03-02T11:15:55;97862.13;;;15.58;100.00
5595;BME280;1003;48.002;7.788;2024-03-02T11:18:27;97861.47;;;15.54;100.00
5595;BME280;1003;48.002;7.788;2024-03-02T11:20:56;97862.94;;;15.75;100.00
5595;BME280;1003;48.002;7.788;2024-03-02T11:23:33;97859.09;;;15.84;100.00
5595;BME280;1003;48.002;7.788;2024-03-02T11:26:18;97867.44;;;15.86;100.00
5595;BME280;1003;48.002;7.788;2024-03-02T11:28:45;97869.44;;;15.64;100.00
5595;BME280;1003;48.002;7.788;2024-03-02T11:31:12;97865.19;;;15.64;100.00
5595;BME280;1003;48.002;7.788;2024-03-02T11:33:40;97867.34;;;15.72;100.00
5595;BME280;1003;48.002;7.788;2024-03-02T11:36:09;97867.03;;;15.78;100.00
5595;BME280;1003;48.002;7.788;2024-03-02T11:38:36;97870.97;;;15.84;100.00
5595;BME280;1003;48.002;7.788;2024-03-02T11:41:07;97868.50;;;16.14;100.00
5595;BME280;1003;48.002;7.788;2024-03-02T11:43:38;97865.47;;;16.39;100.00
5595;BME280;1003;48.002;7.788;2024-03-02T11:46:06;97873.28;;;16.50;100.00
5595;BME280;1003;48.002;7.788;2024-03-02T11:48:35;97879.19;;;16.35;100.00
5595;BME280;1003;48.002;7.788;2024-03-02T11:51:04;97872.72;;;16.45;100.00
5595;BME280;1003;48.002;7.788;2024-03-02T11:53:32;97868.56;;;16.44;100.00
5595;BME280;1003;48.002;7.788;2024-03-02T11:56:02;97875.22;;;16.15;99.14
5595;BME280;1003;48.002;7.788;2024-03-02T11:58:33;97879.44;;;15.67;99.05
5595;BME280;1003;48.002;7.788;2024-03-02T12:01:01;97870.34;;;15.63;100.00
5595;BME280;1003;48.002;7.788;2024-03-02T12:03:28;97867.41;;;15.70;100.00
5595;BME280;1003;48.002;7.788;2024-03-02T12:05:55;97866.59;;;15.70;100.00
5595;BME280;1003;48.002;7.788;2024-03-02T12:08:24;97860.84;;;15.99;100.00
5595;BME280;1003;48.002;7.788;2024-03-02T12:10:59;97864.91;;;16.02;100.00
5595;BME280;1003;48.002;7.788;2024-03-02T12:13:27;97863.50;;;16.28;100.00
5595;BME280;1003;48.002;7.788;2024-03-02T12:15:55;97864.78;;;16.35;99.37
5595;BME280;1003;48.002;7.788;2024-03-02T12:18:22;97873.16;;;16.37;97.58
5595;BME280;1003;48.002;7.788;2024-03-02T12:20:50;97875.44;;;16.42;98.14
5595;BME280;1003;48.002;7.788;2024-03-02T12:23:23;97877.34;;;16.22;98.28
5595;BME280;1003;48.002;7.788;2024-03-02T12:25:50;97885.41;;;16.29;96.19
5595;BME280;1003;48.002;7.788;2024-03-02T12:28:19;97879.25;;;16.65;96.39
5595;BME280;1003;48.002;7.788;2024-03-02T12:30:46;97886.16;;;16.93;95.47
5595;BME280;1003;48.002;7.788;2024-03-02T12:33:14;97852.56;;;17.18;95.37
5595;BME280;1003;48.002;7.788;2024-03-02T12:35:41;97888.66;;;17.37;91.21
5595;BME280;1003;48.002;7.788;2024-03-02T12:38:09;97898.81;;;17.37;88.53
5595;BME280;1003;48.002;7.788;2024-03-02T12:40:38;97897.38;;;17.47;88.85
5595;BME280;1003;48.002;7.788;2024-03-02T12:43:06;97904.47;;;17.42;88.25
5595;BME280;1003;48.002;7.788;2024-03-02T12:45:34;97909.88;;;17.22;86.91
5595;BME280;1003;48.002;7.788;2024-03-02T12:48:01;97908.28;;;17.05;86.98
5595;BME280;1003;48.002;7.788;2024-03-02T12:50:28;97895.84;;;16.86;88.69
5595;BME280;1003;48.002;7.788;2024-03-02T12:52:55;97911.75;;;16.74;87.50
5595;BME280;1003;48.002;7.788;2024-03-02T12:55:23;97909.22;;;16.74;87.58
5595;BME280;1003;48.002;7.788;2024-03-02T12:57:52;97898.63;;;16.82;87.77
5595;BME280;1003;48.002;7.788;2024-03-02T13:00:20;97910.06;;;16.89;86.94
5595;BME280;1003;48.002;7.788;2024-03-02T13:02:48;97913.59;;;16.86;87.70
5595;BME280;1003;48.002;7.788;2024-03-02T13:05:16;97889.63;;;16.76;91.21
5595;BME280;1003;48.002;7.788;2024-03-02T13:07:43;97880.56;;;16.72;93.15
5595;BME280;1003;48.002;7.788;2024-03-02T13:10:12;97885.28;;;16.62;92.65
5595;BME280;1003;48.002;7.788;2024-03-02T13:12:39;97884.00;;;16.55;90.95
5595;BME280;1003;48.002;7.788;2024-03-02T13:15:09;97873.50;;;16.31;91.08
5595;BME280;1003;48.002;7.788;2024-03-02T13:17:36;97866.94;;;16.27;92.87
5595;BME280;1003;48.002;7.788;2024-03-02T13:20:04;97842.50;;;16.26;98.36
5595;BME280;1003;48.002;7.788;2024-03-02T13:22:36;97845.84;;;16.26;96.87
5595;BME280;1003;48.002;7.788;2024-03-02T13:27:39;97828.25;;;16.39;99.99
5595;BME280;1003;48.002;7.788;2024-03-02T13:30:08;97815.31;;;16.44;100.00
5595;BME280;1003;48.002;7.788;2024-03-02T13:32:35;97822.00;;;16.45;100.00